createdAt,value
2018-02-22T18:00:55.994Z,10.90
2018-02-22T18:03:25.430Z,9.50
2018-02-22T18:05:53.630Z,9.40
2018-02-22T18:08:22.216Z,8.90
2018-02-22T18:10:51.268Z,6.90
2018-02-22T18:13:19.437Z,6.80
2018-02-22T18:15:47.667Z,6.40
2018-02-22T18:18:16.610Z,4.70
2018-02-22T18:20:44.836Z,4.70
2018-02-22T18:23:12.978Z,4.00
2018-02-22T18:25:41.920Z,3.10
2018-02-22T18:28:10.156Z,3.10
2018-02-22T18:30:40.980Z,2.50
2018-02-22T18:33:09.380Z,2.50
2018-02-22T18:35:37.538Z,2.40
2018-02-22T18:38:05.703Z,2.30
2018-02-22T18:40:39.623Z,2.20
2018-02-22T18:43:14.377Z,2.10
2018-02-22T18:45:42.737Z,2.10
2018-02-22T18:48:10.967Z,2.00
2018-02-22T18:50:39.161Z,1.90
2018-02-22T18:53:07.501Z,1.80
2018-02-22T18:55:35.667Z,1.80
2018-02-22T18:58:03.826Z,1.80
2018-02-22T19:00:31.968Z,1.80
2018-02-22T19:03:01.059Z,1.60
2018-02-22T19:05:29.398Z,1.60
2018-02-22T19:07:57.573Z,1.50
2018-02-22T19:10:25.730Z,1.60
2018-02-22T19:12:53.899Z,1.60
2018-02-22T19:15:22.381Z,1.60
2018-02-22T19:17:50.547Z,1.60
2018-02-22T19:20:18.833Z,1.50
2018-02-22T19:22:46.995Z,1.40
2018-02-22T19:25:15.197Z,1.40
2018-02-22T19:27:43.929Z,1.40
2018-02-22T19:30:12.869Z,1.40
2018-02-22T19:32:41.114Z,1.30
2018-02-22T19:35:10.187Z,1.30
2018-02-22T19:37:38.360Z,1.30
2018-02-22T19:40:06.676Z,1.30
2018-02-22T19:42:34.859Z,1.30
2018-02-22T19:45:03.281Z,1.30
2018-02-22T19:47:31.455Z,1.30
2018-02-22T19:49:59.642Z,1.30
2018-02-22T19:52:28.585Z,1.30
2018-02-22T19:54:56.822Z,1.20
2018-02-22T19:57:25.871Z,1.20
2018-02-22T19:59:54.108Z,1.20
2018-02-22T20:04:56.841Z,1.10
2018-02-22T20:07:25.009Z,1.10
2018-02-22T20:09:53.181Z,1.10
2018-02-22T20:12:21.436Z,1.10
2018-02-22T20:14:51.197Z,1.00
2018-02-22T20:17:19.503Z,1.00
2018-02-22T20:19:48.343Z,0.90
2018-02-22T20:22:17.468Z,0.90
2018-02-22T20:24:46.225Z,0.90
2018-02-22T20:27:14.406Z,0.80
2018-02-22T20:29:42.582Z,0.80
2018-02-22T20:32:10.757Z,0.70
2018-02-22T20:34:38.943Z,0.80
2018-02-22T20:37:07.118Z,0.80
2018-02-22T20:39:35.390Z,0.80
2018-02-22T20:42:03.643Z,0.80
2018-02-22T20:44:32.576Z,0.70
2018-02-22T20:47:01.549Z,0.70
2018-02-22T20:49:30.505Z,0.70
2018-02-22T20:51:58.715Z,0.70
2018-02-22T20:54:28.387Z,0.70
2018-02-22T20:56:56.555Z,0.70
2018-02-22T20:59:25.507Z,0.70
2018-02-22T21:01:54.396Z,0.60
2018-02-22T21:04:22.628Z,0.60
2018-02-22T21:06:51.005Z,0.60
2018-02-22T21:09:19.296Z,0.60
2018-02-22T21:11:47.581Z,0.50
2018-02-22T21:14:15.744Z,0.50
2018-02-22T21:16:43.932Z,0.50
2018-02-22T21:19:15.105Z,0.40
2018-02-22T21:21:43.256Z,0.40
2018-02-22T21:24:11.563Z,0.40
2018-02-22T21:26:39.765Z,0.40
2018-02-22T21:29:08.019Z,0.40
2018-02-22T21:31:36.355Z,0.30
2018-02-22T21:34:04.582Z,0.40
2018-02-22T21:36:33.034Z,0.30
2018-02-22T21:39:01.981Z,0.20
2018-02-22T21:41:30.143Z,0.20
2018-02-22T21:43:59.134Z,0.10
2018-02-22T21:46:27.378Z,0.10
2018-02-22T21:48:55.543Z,0.20
2018-02-22T21:51:24.464Z,0.00
2018-02-22T21:53:52.654Z,0.00
2018-02-22T21:56:20.827Z,0.00
2018-02-22T21:58:54.248Z,0.00
2018-02-22T22:01:23.537Z,0.00
2018-02-22T22:03:51.702Z,0.00
2018-02-22T22:06:19.894Z,0.10
2018-02-22T22:08:48.072Z,0.10
2018-02-22T22:11:16.209Z,0.00
2018-02-22T22:13:44.491Z,0.00
2018-02-22T22:16:12.690Z,-0.10
2018-02-22T22:18:40.852Z,-0.10
2018-02-22T22:21:09.131Z,-0.20
2018-02-22T22:23:37.405Z,-0.20
2018-02-22T22:26:05.581Z,-0.20
2018-02-22T22:28:33.786Z,-0.20
2018-02-22T22:31:02.709Z,-0.20
2018-02-22T22:33:30.941Z,-0.20
2018-02-22T22:35:59.238Z,-0.20
2018-02-22T22:38:27.383Z,-0.30
2018-02-22T22:40:55.587Z,-0.30
2018-02-22T22:43:23.903Z,-0.30
2018-02-22T22:45:52.072Z,-0.40
2018-02-22T22:48:20.215Z,-0.40
2018-02-22T22:50:48.620Z,-0.50
2018-02-22T22:53:17.121Z,-0.50
2018-02-22T22:55:45.286Z,-0.50
2018-02-22T22:58:13.431Z,-0.60
2018-02-22T23:00:42.480Z,-0.70
2018-02-22T23:03:10.639Z,-0.70
2018-02-22T23:05:39.032Z,-0.60
2018-02-22T23:08:07.431Z,-0.60
2018-02-22T23:10:35.593Z,-0.70
2018-02-22T23:13:03.830Z,-0.70
2018-02-22T23:15:32.047Z,-0.70
2018-02-22T23:18:00.268Z,-0.70
2018-02-22T23:20:28.626Z,-0.70
2018-02-22T23:22:57.567Z,-0.80
2018-02-22T23:25:25.719Z,-0.80
2018-02-22T23:27:53.966Z,-0.70
2018-02-22T23:30:23.077Z,-0.80
2018-02-22T23:32:51.362Z,-0.90
2018-02-22T23:35:19.540Z,-0.90
2018-02-22T23:37:47.887Z,-0.90
2018-02-22T23:40:31.858Z,-1.00
2018-02-22T23:43:00.881Z,-1.00
2018-02-22T23:45:29.078Z,-1.00
2018-02-22T23:47:57.244Z,-1.00
2018-02-22T23:50:25.449Z,-1.10
2018-02-22T23:52:54.434Z,-1.00
2018-02-22T23:55:22.721Z,-1.10
2018-02-22T23:57:51.713Z,-1.10
